Time;durP1;ratioP1;P1;durP2;ratioP2;P2;SDS_P1;SDS_P2;PMS_P1;PMS_P2;Temp;Humidity;BMP_temperature;BMP_pressure;BME280_temperature;BME280_humidity;BME280_pressure;Samples;Min_cycle;Max_cycle;Signal;HPM_P1;HPM_P2
2022/11/12 00:01:51;;;;;;;17.75;11.45;;;7.10;99.90;;;;;;5010825;28;20141;-44
2022/11/12 00:04:19;;;;;;;21.55;13.82;;;7.10;99.90;;;;;;5013927;28;20085;-43
2022/11/12 00:06:46;;;;;;;17.33;12.93;;;7.10;99.90;;;;;;5012389;28;20062;-46
2022/11/12 00:09:13;;;;;;;19.77;13.05;;;7.10;99.90;;;;;;5012135;28;20133;-42
2022/11/12 00:11:40;;;;;;;15.50;10.70;;;7.10;99.90;;;;;;5011619;28;20053;-44
2022/11/12 00:14:06;;;;;;;21.95;14.00;;;7.00;99.90;;;;;;5011397;28;20085;-45
2022/11/12 00:16:33;;;;;;;19.75;13.02;;;7.00;99.90;;;;;;5011336;28;20088;-44
2022/11/12 00:19:00;;;;;;;20.83;13.07;;;7.00;99.90;;;;;;4993121;28;20134;-43
2022/11/12 00:21:28;;;;;;;21.33;13.38;;;7.00;99.90;;;;;;5007359;28;20154;-44
2022/11/12 00:23:55;;;;;;;17.70;12.60;;;7.00;99.90;;;;;;5013232;28;20108;-43
2022/11/12 00:26:21;;;;;;;18.50;12.48;;;7.00;99.90;;;;;;5013261;28;20133;-43
2022/11/12 00:28:48;;;;;;;18.35;12.60;;;7.00;99.90;;;;;;5013380;28;20136;-45
2022/11/12 00:31:15;;;;;;;19.10;12.95;;;7.00;99.90;;;;;;5009952;28;20152;-43
2022/11/12 00:33:42;;;;;;;20.92;12.20;;;7.00;99.90;;;;;;5012582;28;20200;-43
2022/11/12 00:36:09;;;;;;;22.00;13.70;;;7.00;99.90;;;;;;5012984;28;20054;-42
2022/11/12 00:38:37;;;;;;;19.02;12.82;;;6.90;99.90;;;;;;5012974;28;20136;-41
2022/11/12 00:41:04;;;;;;;18.08;12.02;;;6.90;99.90;;;;;;5010830;28;20490;-41
2022/11/12 00:43:31;;;;;;;22.40;12.52;;;6.90;99.90;;;;;;5013075;28;20053;-42
2022/11/12 00:45:58;;;;;;;20.05;12.40;;;6.90;99.90;;;;;;5013488;28;20105;-44
2022/11/12 00:48:24;;;;;;;24.38;14.35;;;6.90;99.90;;;;;;5013302;28;20129;-46
2022/11/12 00:50:51;;;;;;;20.83;13.43;;;6.90;99.90;;;;;;5011168;28;20053;-45
2022/11/12 00:53:18;;;;;;;20.98;12.90;;;6.80;99.90;;;;;;5011422;28;20049;-42
2022/11/12 00:55:46;;;;;;;21.00;13.50;;;6.80;99.90;;;;;;5010981;28;20181;-46
2022/11/12 00:58:13;;;;;;;18.77;11.88;;;6.80;99.90;;;;;;5012000;28;20135;-44
2022/11/12 01:00:40;;;;;;;25.48;14.70;;;6.80;99.90;;;;;;5012449;28;20085;-40
2022/11/12 01:03:06;;;;;;;23.35;13.93;;;6.80;99.90;;;;;;5013184;28;20157;-44
2022/11/12 01:05:33;;;;;;;20.83;12.35;;;6.80;99.90;;;;;;5011223;28;20144;-44
2022/11/12 01:08:00;;;;;;;18.95;12.93;;;6.70;99.90;;;;;;5009432;28;20061;-43
2022/11/12 01:10:27;;;;;;;20.80;12.27;;;6.70;99.90;;;;;;5010700;28;20110;-42
2022/11/12 01:12:56;;;;;;;23.30;14.40;;;6.70;99.90;;;;;;5012667;28;20096;-47
2022/11/12 01:15:22;;;;;;;19.63;12.82;;;6.70;99.90;;;;;;5010962;28;20077;-42
2022/11/12 01:17:49;;;;;;;19.13;12.52;;;6.60;99.90;;;;;;5012613;28;20570;-44
2022/11/12 01:20:16;;;;;;;19.27;11.90;;;6.60;99.90;;;;;;5010249;28;20077;-43
2022/11/12 01:22:43;;;;;;;21.17;13.40;;;6.60;99.90;;;;;;5010887;28;20100;-45
2022/11/12 01:25:10;;;;;;;25.58;13.32;;;6.50;99.90;;;;;;5011180;28;20089;-44
2022/11/12 01:27:36;;;;;;;19.70;12.50;;;6.50;99.90;;;;;;5007075;28;20480;-44
2022/11/12 01:30:07;;;;;;;17.20;11.00;;;6.50;99.90;;;;;;5004194;28;20160;-42
2022/11/12 01:32:35;;;;;;;15.48;11.30;;;6.50;99.90;;;;;;4998137;28;20455;-45
2022/11/12 01:35:02;;;;;;;13.60;10.13;;;6.50;99.90;;;;;;5012119;28;20479;-42
2022/11/12 01:37:29;;;;;;;16.23;10.68;;;6.40;99.90;;;;;;5011938;28;20054;-42
2022/11/12 01:39:56;;;;;;;19.55;12.18;;;6.40;99.90;;;;;;5011970;28;20092;-43
2022/11/12 01:42:23;;;;;;;22.83;13.45;;;6.40;99.90;;;;;;5011103;28;20076;-44
2022/11/12 01:44:52;;;;;;;18.15;11.90;;;6.30;99.90;;;;;;5007908;28;20518;-45
2022/11/12 01:47:20;;;;;;;19.42;12.57;;;6.40;99.90;;;;;;4993346;28;20133;-43
2022/11/12 01:49:50;;;;;;;17.08;11.20;;;6.30;99.90;;;;;;5006777;28;20149;-44
2022/11/12 01:52:18;;;;;;;16.67;10.50;;;6.30;99.90;;;;;;4992979;28;20516;-45
2022/11/12 01:54:48;;;;;;;20.75;12.70;;;6.30;99.90;;;;;;5004094;28;20085;-44
2022/11/12 01:57:15;;;;;;;17.40;11.38;;;6.30;99.90;;;;;;5013880;28;20058;-42
2022/11/12 01:59:45;;;;;;;18.48;11.38;;;6.20;99.90;;;;;;5014060;28;20081;-43
2022/11/12 02:02:15;;;;;;;23.83;14.07;;;6.20;99.90;;;;;;5015814;28;20096;-43
2022/11/12 02:04:43;;;;;;;19.50;13.35;;;6.20;99.90;;;;;;5014464;28;20046;-45
2022/11/12 02:07:10;;;;;;;22.35;14.25;;;6.20;99.90;;;;;;5015844;28;20104;-46
2022/11/12 02:09:37;;;;;;;20.40;13.15;;;6.10;99.90;;;;;;5015212;28;20058;-44
2022/11/12 02:12:04;;;;;;;18.90;12.43;;;6.10;99.90;;;;;;5014720;28;20136;-43
2022/11/12 02:14:30;;;;;;;21.80;13.32;;;6.10;99.90;;;;;;5015339;28;20112;-46
2022/11/12 02:16:56;;;;;;;20.08;12.60;;;6.20;99.90;;;;;;5002993;28;20047;-48
2022/11/12 02:19:23;;;;;;;17.25;12.25;;;6.10;99.90;;;;;;5015000;28;20541;-44
2022/11/12 02:21:51;;;;;;;22.48;14.18;;;6.10;99.90;;;;;;5011027;28;20050;-43
2022/11/12 02:24:36;;;;;;;27.73;16.63;;;6.10;99.90;;;;;;5008403;28;20054;-42
2022/11/12 02:27:03;;;;;;;29.35;16.55;;;6.10;99.90;;;;;;5014262;28;20053;-44
2022/11/12 02:29:30;;;;;;;25.13;15.02;;;6.00;99.90;;;;;;4996492;28;20132;-43
2022/11/12 02:31:57;;;;;;;19.83;13.27;;;6.00;99.90;;;;;;5014596;28;20060;-45
2022/11/12 02:34:24;;;;;;;22.75;13.63;;;6.00;99.90;;;;;;5010010;28;20096;-45
2022/11/12 02:36:52;;;;;;;18.88;11.52;;;6.00;99.90;;;;;;5014242;28;20108;-45
2022/11/12 02:39:18;;;;;;;20.55;13.52;;;6.00;99.90;;;;;;5013724;28;20053;-44
2022/11/12 02:41:45;;;;;;;17.50;12.70;;;6.00;99.90;;;;;;5014465;28;20133;-45
2022/11/12 02:44:12;;;;;;;22.38;13.98;;;6.00;99.90;;;;;;5000124;28;20084;-46
2022/11/12 02:46:39;;;;;;;21.92;12.73;;;5.90;99.90;;;;;;5010915;28;20577;-44
2022/11/12 02:49:06;;;;;;;22.33;13.23;;;5.90;99.90;;;;;;5013733;28;20141;-44
2022/11/12 02:51:32;;;;;;;22.95;13.48;;;5.90;99.90;;;;;;5013727;28;20057;-43
2022/11/12 02:54:00;;;;;;;19.55;12.05;;;5.90;99.90;;;;;;5013836;28;20081;-44
2022/11/12 02:56:27;;;;;;;20.00;12.63;;;5.90;99.90;;;;;;5013697;28;20108;-44
2022/11/12 02:58:54;;;;;;;19.10;12.23;;;5.80;99.90;;;;;;5001020;28;20085;-45
2022/11/12 03:01:21;;;;;;;19.55;13.73;;;5.90;99.90;;;;;;5014158;28;20462;-44
2022/11/12 03:03:47;;;;;;;18.02;12.90;;;5.80;99.90;;;;;;5007649;28;20489;-44
2022/11/12 03:06:14;;;;;;;20.75;12.45;;;5.80;99.90;;;;;;5014501;28;20100;-45
2022/11/12 03:08:41;;;;;;;20.08;13.25;;;5.80;99.90;;;;;;5012675;28;20058;-46
2022/11/12 03:11:10;;;;;;;22.88;13.90;;;5.80;99.90;;;;;;5013762;28;20140;-42
2022/11/12 03:13:37;;;;;;;18.70;11.48;;;5.80;99.90;;;;;;5011744;28;20089;-43
2022/11/12 03:16:04;;;;;;;18.67;12.15;;;5.70;99.90;;;;;;5013431;28;20053;-42
2022/11/12 03:18:31;;;;;;;13.95;10.40;;;5.70;99.90;;;;;;5006014;28;20054;-45
2022/11/12 03:20:58;;;;;;;17.52;11.88;;;5.70;99.90;;;;;;5011688;28;20082;-43
2022/11/12 03:23:26;;;;;;;16.50;12.13;;;5.70;99.90;;;;;;5013092;28;20117;-43
2022/11/12 03:25:52;;;;;;;17.60;11.10;;;5.70;99.90;;;;;;5013004;28;20462;-47
2022/11/12 03:28:20;;;;;;;18.00;12.15;;;5.70;99.90;;;;;;5013130;28;20053;-44
2022/11/12 03:30:47;;;;;;;18.27;12.90;;;5.60;99.90;;;;;;4998577;28;20129;-43
2022/11/12 03:33:16;;;;;;;17.48;12.38;;;5.60;99.90;;;;;;5014080;28;20129;-43
2022/11/12 03:35:42;;;;;;;17.60;11.07;;;5.60;99.90;;;;;;5005292;28;20443;-46
2022/11/12 03:38:09;;;;;;;17.65;9.90;;;5.50;99.90;;;;;;5006046;28;20077;-46
2022/11/12 03:40:36;;;;;;;18.15;12.13;;;5.60;99.90;;;;;;5011967;28;20097;-41
2022/11/12 03:43:03;;;;;;;19.30;11.43;;;5.50;99.90;;;;;;5011713;28;20085;-44
2022/11/12 03:45:31;;;;;;;14.80;10.73;;;5.50;99.90;;;;;;5012415;28;20116;-47
2022/11/12 03:47:58;;;;;;;19.65;10.98;;;5.50;99.90;;;;;;5010160;28;20049;-40
2022/11/12 03:50:26;;;;;;;17.52;11.70;;;5.50;99.90;;;;;;5002491;28;20082;-43
2022/11/12 03:52:54;;;;;;;23.67;12.90;;;5.40;99.90;;;;;;5005523;28;20157;-45
2022/11/12 03:55:21;;;;;;;17.30;12.10;;;5.40;99.90;;;;;;5012141;28;20133;-44
2022/11/12 03:57:48;;;;;;;21.00;12.95;;;5.40;99.90;;;;;;5013488;28;20147;-42
2022/11/12 04:00:15;;;;;;;22.63;14.38;;;5.40;99.90;;;;;;5011980;28;20096;-46
2022/11/12 04:02:43;;;;;;;21.60;13.02;;;5.40;99.90;;;;;;5012265;28;20450;-45
2022/11/12 04:10:42;;;;;;;16.77;10.80;;;5.30;99.90;;;;;;5012541;28;20501;-43
2022/11/12 04:24:03;;;;;;;15.90;10.98;;;5.20;99.90;;;;;;5011749;28;20053;-44
2022/11/12 04:26:29;;;;;;;18.88;12.02;;;5.20;99.90;;;;;;5011068;28;20553;-43
2022/11/12 04:31:40;;;;;;;14.98;10.05;;;5.20;99.90;;;;;;5013026;28;20042;-43
2022/11/12 04:36:52;;;;;;;18.17;11.20;;;5.10;99.90;;;;;;4997519;28;20075;-42
2022/11/12 04:39:19;;;;;;;20.83;11.95;;;5.10;99.90;;;;;;5008191;28;20050;-42
2022/11/12 04:47:15;;;;;;;18.55;11.32;;;5.10;99.90;;;;;;5009891;28;20430;-45
2022/11/12 04:49:43;;;;;;;21.33;11.70;;;5.10;99.90;;;;;;5009070;28;20050;-43
2022/11/12 04:52:09;;;;;;;14.30;9.20;;;5.10;99.90;;;;;;5010683;28;20037;-43
2022/11/12 04:54:36;;;;;;;14.18;10.45;;;5.00;99.90;;;;;;5014250;28;20108;-44
2022/11/12 04:57:03;;;;;;;13.57;9.35;;;5.00;99.90;;;;;;5011777;28;20085;-42
2022/11/12 04:59:30;;;;;;;13.13;9.02;;;5.00;99.90;;;;;;5011295;28;20080;-42
2022/11/12 05:01:57;;;;;;;15.32;9.98;;;5.00;99.90;;;;;;5008204;28;20104;-42
2022/11/12 05:04:26;;;;;;;13.80;9.80;;;5.00;99.90;;;;;;5010611;28;20106;-42
2022/11/12 05:06:55;;;;;;;14.48;9.65;;;4.90;99.90;;;;;;5010389;28;20498;-42
2022/11/12 05:09:24;;;;;;;16.17;9.65;;;4.90;99.90;;;;;;5012385;28;20557;-43
2022/11/12 05:11:51;;;;;;;17.90;10.40;;;4.90;99.90;;;;;;5010481;28;20054;-42
2022/11/12 05:14:17;;;;;;;26.85;11.40;;;4.90;99.90;;;;;;5011524;28;20132;-45
2022/11/12 05:16:44;;;;;;;17.95;11.18;;;4.90;99.90;;;;;;5010962;28;20085;-41
2022/11/12 05:19:11;;;;;;;13.63;9.88;;;4.90;99.90;;;;;;5011001;28;20060;-42
2022/11/12 05:24:32;;;;;;;16.65;11.00;;;4.80;99.90;;;;;;4973898;28;20137;-41
2022/11/12 05:26:59;;;;;;;20.90;12.10;;;4.80;99.90;;;;;;5007782;28;20453;-41
2022/11/12 05:29:26;;;;;;;17.42;10.98;;;4.80;99.90;;;;;;4998523;28;20504;-41
2022/11/12 05:31:53;;;;;;;20.38;11.50;;;4.90;99.90;;;;;;5010738;28;20513;-41
2022/11/12 05:34:19;;;;;;;16.27;10.00;;;4.80;99.90;;;;;;5011622;28;20153;-40
2022/11/12 05:36:46;;;;;;;16.10;10.07;;;4.80;99.90;;;;;;5009031;28;20108;-41
2022/11/12 05:39:13;;;;;;;18.95;12.43;;;4.80;99.90;;;;;;5010622;28;20049;-41
2022/11/12 05:41:41;;;;;;;21.92;11.57;;;4.80;99.90;;;;;;5012459;28;20081;-42
2022/11/12 05:44:08;;;;;;;20.60;13.65;;;4.80;99.90;;;;;;5010701;28;20085;-41
2022/11/12 05:46:35;;;;;;;18.00;12.15;;;4.80;99.90;;;;;;5010245;28;20398;-40
2022/11/12 05:49:01;;;;;;;15.15;10.85;;;4.80;99.90;;;;;;5011479;28;20103;-41
2022/11/12 05:51:28;;;;;;;15.20;9.23;;;4.80;99.90;;;;;;5002706;28;20147;-41
2022/11/12 05:53:55;;;;;;;15.80;9.93;;;4.80;99.90;;;;;;5011788;28;20089;-40
2022/11/12 05:56:22;;;;;;;13.90;8.95;;;4.70;99.90;;;;;;5001711;28;20105;-40
2022/11/12 05:58:50;;;;;;;16.33;11.02;;;4.80;99.90;;;;;;5008261;28;20082;-41
2022/11/12 06:01:17;;;;;;;14.18;10.05;;;4.80;99.90;;;;;;5009039;28;20136;-41
2022/11/12 06:03:44;;;;;;;21.95;10.93;;;4.70;99.90;;;;;;5008847;28;20072;-42
2022/11/12 06:06:11;;;;;;;29.23;12.25;;;4.80;99.90;;;;;;5009164;28;20050;-41
2022/11/12 06:08:38;;;;;;;19.67;11.07;;;4.70;99.90;;;;;;5009834;28;20058;-41
2022/11/12 06:11:05;;;;;;;26.40;10.30;;;4.70;99.90;;;;;;5010638;28;20125;-41
2022/11/12 06:13:32;;;;;;;12.68;9.38;;;4.70;99.90;;;;;;5010555;28;20445;-41
2022/11/12 06:16:00;;;;;;;19.02;10.88;;;4.70;99.90;;;;;;5010846;28;20177;-42
2022/11/12 06:18:27;;;;;;;17.77;10.20;;;4.70;99.90;;;;;;5011941;28;20081;-41
2022/11/12 06:23:38;;;;;;;15.98;9.20;;;4.70;99.90;;;;;;5011087;28;20087;-40
2022/11/12 06:26:05;;;;;;;33.42;10.60;;;4.70;99.90;;;;;;5009422;28;20104;-41
2022/11/12 06:28:32;;;;;;;16.13;9.20;;;4.70;99.90;;;;;;5011721;28;20104;-40
2022/11/12 06:31:00;;;;;;;16.00;9.48;;;4.70;99.90;;;;;;5010841;28;20154;-41
2022/11/12 06:33:27;;;;;;;16.63;9.05;;;4.70;99.90;;;;;;5003832;28;20050;-42
2022/11/12 06:36:01;;;;;;;17.75;9.35;;;4.70;99.90;;;;;;5004011;28;20640;-41
2022/11/12 06:38:29;;;;;;;13.93;8.95;;;4.70;99.90;;;;;;5010785;28;20064;-43
2022/11/12 06:40:55;;;;;;;12.32;9.10;;;4.70;99.90;;;;;;5013053;28;20060;-42
2022/11/12 06:43:22;;;;;;;10.70;7.82;;;4.70;99.90;;;;;;5013846;28;20084;-41
2022/11/12 06:45:49;;;;;;;10.95;8.02;;;4.70;99.90;;;;;;5010175;28;20141;-42
2022/11/12 06:48:17;;;;;;;11.10;8.43;;;4.80;99.90;;;;;;5013451;28;20134;-40
2022/11/12 06:50:44;;;;;;;12.20;8.70;;;4.80;99.90;;;;;;5013497;28;20137;-41
2022/11/12 06:53:11;;;;;;;14.27;9.13;;;4.80;99.90;;;;;;5014051;28;20092;-42
2022/11/12 06:55:37;;;;;;;13.32;9.43;;;4.90;99.90;;;;;;5010608;28;20133;-41
2022/11/12 06:58:04;;;;;;;17.27;10.15;;;4.90;99.90;;;;;;5011359;28;20061;-42
2022/11/12 07:00:31;;;;;;;17.00;10.88;;;4.90;99.90;;;;;;5013109;28;20069;-41
2022/11/12 07:02:58;;;;;;;14.15;9.70;;;4.90;99.90;;;;;;5012460;28;20526;-42
2022/11/12 07:05:26;;;;;;;14.45;10.25;;;4.90;99.90;;;;;;5015099;28;20045;-42
2022/11/12 07:07:54;;;;;;;21.95;12.85;;;5.00;99.90;;;;;;5013922;28;20116;-42
2022/11/12 07:10:20;;;;;;;18.27;11.50;;;5.00;99.90;;;;;;5014632;28;20050;-42
2022/11/12 07:12:47;;;;;;;17.27;11.45;;;5.00;99.90;;;;;;5012863;28;20128;-42
2022/11/12 07:15:14;;;;;;;17.50;12.20;;;5.10;99.90;;;;;;5013969;28;20089;-42
2022/11/12 07:17:44;;;;;;;16.58;12.07;;;5.10;99.90;;;;;;5013017;28;20085;-42
2022/11/12 07:20:11;;;;;;;18.48;11.70;;;5.10;99.90;;;;;;5024173;28;20129;-41
2022/11/12 07:22:39;;;;;;;14.73;11.23;;;5.20;99.90;;;;;;5012907;28;20092;-42
2022/11/12 07:25:07;;;;;;;15.50;11.07;;;5.20;99.90;;;;;;5012031;28;20085;-40
2022/11/12 07:27:33;;;;;;;14.13;10.43;;;5.30;99.90;;;;;;5012950;28;20418;-39
2022/11/12 07:30:00;;;;;;;16.38;10.18;;;5.30;99.90;;;;;;5029173;28;20093;-37
2022/11/12 07:32:27;;;;;;;14.85;10.27;;;5.30;99.90;;;;;;5008500;28;20125;-37
2022/11/12 07:34:54;;;;;;;15.60;11.57;;;5.50;99.90;;;;;;5012662;28;20132;-38
2022/11/12 07:37:20;;;;;;;13.75;10.25;;;5.40;99.90;;;;;;5012607;28;20141;-38
2022/11/12 07:39:49;;;;;;;11.80;9.73;;;5.50;99.90;;;;;;5011442;28;20062;-39
2022/11/12 07:42:16;;;;;;;17.13;11.32;;;5.50;99.90;;;;;;5009834;28;20671;-38
2022/11/12 07:44:43;;;;;;;14.20;10.98;;;5.60;99.90;;;;;;5011984;28;20452;-38
2022/11/12 07:47:09;;;;;;;18.23;11.57;;;5.60;99.90;;;;;;5011967;28;20085;-40
2022/11/12 07:49:36;;;;;;;18.15;11.23;;;5.60;99.90;;;;;;5013355;28;20095;-40
2022/11/12 07:52:03;;;;;;;15.27;9.95;;;5.70;99.90;;;;;;5009346;28;20085;-41
2022/11/12 07:54:30;;;;;;;15.73;11.32;;;5.70;99.90;;;;;;5012170;28;20096;-41
2022/11/12 07:56:58;;;;;;;14.77;11.40;;;5.80;99.90;;;;;;5011978;28;20140;-43
2022/11/12 07:59:25;;;;;;;13.95;9.95;;;5.80;99.90;;;;;;5012738;28;20066;-40
2022/11/12 08:01:52;;;;;;;15.98;10.35;;;5.80;99.90;;;;;;5011428;28;20580;-41
2022/11/12 08:04:18;;;;;;;18.27;10.57;;;5.90;99.90;;;;;;5011417;28;20057;-40
2022/11/12 08:06:45;;;;;;;17.55;11.20;;;5.90;99.90;;;;;;5010206;28;20104;-40
2022/11/12 08:09:12;;;;;;;14.73;9.63;;;5.90;99.90;;;;;;5011591;28;20089;-40
2022/11/12 08:11:40;;;;;;;15.25;10.35;;;6.00;99.90;;;;;;5012390;28;20147;-41
2022/11/12 08:14:08;;;;;;;15.80;11.05;;;6.00;99.90;;;;;;5013655;28;20108;-40
2022/11/12 08:16:35;;;;;;;19.27;12.55;;;6.10;99.90;;;;;;5008396;28;20101;-40
2022/11/12 08:19:02;;;;;;;19.38;12.85;;;6.10;99.90;;;;;;5011927;28;20100;-43
2022/11/12 08:21:29;;;;;;;18.70;11.85;;;6.20;99.90;;;;;;5008004;28;20140;-40
2022/11/12 08:23:56;;;;;;;18.40;12.18;;;6.20;99.90;;;;;;5011573;28;20049;-40
2022/11/12 08:26:25;;;;;;;14.98;11.10;;;6.30;99.90;;;;;;5011139;28;20149;-39
2022/11/12 08:28:51;;;;;;;15.55;11.05;;;6.40;99.90;;;;;;5011221;28;20180;-41
2022/11/12 08:31:21;;;;;;;15.73;11.27;;;6.40;99.90;;;;;;5010729;28;20049;-40
2022/11/12 08:34:25;;;;;;;14.25;9.88;;;6.50;99.90;;;;;;4746697;23;20053;-38
2022/11/12 08:36:51;;;;;;;20.60;12.80;;;6.60;99.90;;;;;;5003671;28;20056;-41
2022/11/12 08:39:18;;;;;;;17.58;11.07;;;6.60;99.90;;;;;;5025414;28;20112;-40
2022/11/12 08:41:45;;;;;;;16.08;10.48;;;6.60;99.90;;;;;;5028848;28;20077;-40
2022/11/12 08:44:12;;;;;;;16.17;11.32;;;6.70;99.90;;;;;;5029774;28;20563;-40
2022/11/12 08:46:40;;;;;;;13.57;10.60;;;6.80;99.90;;;;;;5032533;28;20053;-41
2022/11/12 08:49:07;;;;;;;14.77;11.32;;;6.80;99.90;;;;;;5030666;28;20096;-40
2022/11/12 08:51:33;;;;;;;13.25;10.27;;;6.80;99.90;;;;;;5031488;28;20075;-41
2022/11/12 08:54:00;;;;;;;12.80;9.30;;;6.90;99.90;;;;;;5030283;28;20095;-43
2022/11/12 08:57:06;;;;;;;13.60;9.88;;;6.90;99.90;;;;;;5029622;28;20494;-40
2022/11/12 08:59:33;;;;;;;13.10;9.70;;;6.90;99.90;;;;;;5026441;28;20506;-42
2022/11/12 09:02:01;;;;;;;14.80;9.68;;;6.90;99.90;;;;;;5029825;28;20476;-42
2022/11/12 09:04:28;;;;;;;12.23;9.98;;;7.00;99.90;;;;;;5024867;28;20133;-46
2022/11/12 09:07:25;;;;;;;15.57;10.65;;;7.10;99.90;;;;;;5023591;28;20124;-43
2022/11/12 09:09:52;;;;;;;16.75;11.02;;;7.20;99.90;;;;;;5029794;28;20497;-40
2022/11/12 09:12:19;;;;;;;15.50;10.85;;;7.20;99.90;;;;;;5033025;28;20103;-42
2022/11/12 09:14:46;;;;;;;14.27;10.98;;;7.30;99.90;;;;;;5015229;28;20077;-40
2022/11/12 09:17:14;;;;;;;17.27;11.20;;;7.40;99.90;;;;;;5026286;28;20084;-41
2022/11/12 09:19:41;;;;;;;16.38;11.07;;;7.40;99.90;;;;;;5031994;28;20052;-40
2022/11/12 09:22:08;;;;;;;17.48;11.23;;;7.50;99.90;;;;;;5031529;28;20124;-40
2022/11/12 09:24:35;;;;;;;18.42;11.60;;;7.60;99.90;;;;;;5030947;28;20041;-41
2022/11/12 09:27:01;;;;;;;13.45;10.88;;;7.60;99.90;;;;;;5030498;28;20559;-40
2022/11/12 09:29:28;;;;;;;14.20;10.30;;;7.70;99.90;;;;;;5032462;28;20127;-40
2022/11/12 09:31:55;;;;;;;16.88;10.88;;;7.80;99.90;;;;;;5027485;28;20057;-41
2022/11/12 09:34:23;;;;;;;17.08;11.63;;;7.90;99.90;;;;;;5028276;28;20095;-44
2022/11/12 09:36:50;;;;;;;15.82;10.88;;;8.00;99.90;;;;;;5037692;28;20111;-40
2022/11/12 09:39:17;;;;;;;16.17;11.52;;;8.10;99.90;;;;;;5046579;28;20048;-41
2022/11/12 09:41:43;;;;;;;18.08;11.52;;;8.20;99.90;;;;;;5048002;28;20439;-40
2022/11/12 09:44:11;;;;;;;16.70;11.30;;;8.10;99.90;;;;;;5047572;28;20044;-41
2022/11/12 09:46:40;;;;;;;17.17;11.23;;;8.30;99.90;;;;;;5047618;28;20396;-42
2022/11/12 09:49:11;;;;;;;16.85;11.75;;;8.30;99.90;;;;;;5037381;28;20692;-41
2022/11/12 09:51:41;;;;;;;14.53;10.50;;;8.40;99.90;;;;;;5050007;28;20053;-40
2022/11/12 09:54:17;;;;;;;21.48;11.65;;;8.50;99.90;;;;;;5046118;28;20130;-40
2022/11/12 09:56:43;;;;;;;16.80;11.43;;;8.50;99.90;;;;;;5042704;28;20126;-40
2022/11/12 09:59:12;;;;;;;15.25;11.05;;;8.60;99.90;;;;;;5043046;28;20057;-40
2022/11/12 10:01:43;;;;;;;17.80;12.23;;;8.70;99.90;;;;;;5038059;28;20048;-40
2022/11/12 10:04:40;;;;;;;16.85;11.65;;;8.80;99.90;;;;;;5047695;28;20134;-40
2022/11/12 10:07:13;;;;;;;22.83;11.88;;;8.90;99.90;;;;;;5015505;28;20107;-40
2022/11/12 10:09:45;;;;;;;20.02;12.57;;;9.00;99.90;;;;;;5039417;28;20416;-42
2022/11/12 10:12:33;;;;;;;;;;;9.10;99.90;;;;;;5044298;28;20134;-41
2022/11/12 10:17:57;;;;;;;17.05;12.77;;;9.20;99.90;;;;;;5047444;28;20532;-40
2022/11/12 10:20:25;;;;;;;17.55;12.40;;;9.30;99.90;;;;;;5042214;28;20084;-40
2022/11/12 10:23:05;;;;;;;16.05;11.95;;;9.40;99.90;;;;;;5050330;28;20053;-40
2022/11/12 10:25:32;;;;;;;21.63;12.75;;;9.50;99.90;;;;;;5051712;28;20095;-41
2022/11/12 10:27:58;;;;;;;18.15;12.35;;;9.60;99.90;;;;;;5042051;28;20128;-41
2022/11/12 10:30:25;;;;;;;17.42;12.00;;;9.70;99.90;;;;;;5046503;28;20100;-42
2022/11/12 10:32:52;;;;;;;19.08;11.80;;;9.70;99.90;;;;;;5046544;28;20183;-42
2022/11/12 10:35:20;;;;;;;18.33;12.15;;;9.80;99.90;;;;;;5042650;28;20468;-40
2022/11/12 10:37:49;;;;;;;18.73;12.70;;;9.90;99.90;;;;;;5053190;28;20513;-42
2022/11/12 10:40:32;;;;;;;20.52;12.95;;;10.00;99.90;;;;;;5049793;28;20080;-41
2022/11/12 10:43:00;;;;;;;19.73;12.18;;;10.00;99.90;;;;;;5052735;28;20044;-42
2022/11/12 10:45:27;;;;;;;17.38;11.90;;;10.00;99.90;;;;;;5064645;28;20049;-39
2022/11/12 10:47:54;;;;;;;17.60;12.52;;;10.10;99.90;;;;;;5047701;28;20558;-40
2022/11/12 10:50:21;;;;;;;22.65;12.18;;;10.20;99.90;;;;;;5050974;28;20551;-40
2022/11/12 10:52:55;;;;;;;21.15;12.23;;;10.30;99.90;;;;;;5050366;28;20041;-40
2022/11/12 10:55:25;;;;;;;19.13;12.20;;;10.30;99.90;;;;;;5053769;28;20076;-40
2022/11/12 10:58:13;;;;;;;19.55;12.00;;;10.40;99.90;;;;;;5040019;28;20053;-39
2022/11/12 11:00:58;;;;;;;17.73;11.95;;;10.50;99.90;;;;;;5053090;28;20045;-40
2022/11/12 11:03:25;;;;;;;16.67;11.43;;;10.60;99.90;;;;;;5042778;28;20049;-41
2022/11/12 11:05:54;;;;;;;17.58;12.02;;;10.70;99.90;;;;;;5056686;28;20081;-40
2022/11/12 11:08:41;;;;;;;20.23;12.02;;;10.80;99.90;;;;;;5054096;28;20497;-40
2022/11/12 11:11:17;;;;;;;18.45;12.35;;;10.80;99.90;;;;;;5053688;28;20084;-41
2022/11/12 11:13:45;;;;;;;16.17;12.32;;;10.90;99.90;;;;;;5036347;28;20574;-40
2022/11/12 11:16:13;;;;;;;18.92;12.02;;;10.90;99.90;;;;;;5042549;28;20111;-40
2022/11/12 11:18:41;;;;;;;19.95;12.55;;;11.00;99.90;;;;;;5054148;28;20076;-40
2022/11/12 11:21:13;;;;;;;16.98;12.20;;;11.00;99.90;;;;;;5037937;28;20049;-41
2022/11/12 11:23:51;;;;;;;18.50;12.05;;;11.10;99.90;;;;;;5042093;28;20076;-40
2022/11/12 11:26:27;;;;;;;20.85;11.63;;;11.20;99.90;;;;;;5040994;28;20057;-40
2022/11/12 11:28:59;;;;;;;19.42;12.38;;;11.20;99.90;;;;;;5049242;28;20053;-43
2022/11/12 11:31:31;;;;;;;16.23;11.43;;;11.30;99.90;;;;;;5045743;28;21578;-40
2022/11/12 11:34:04;;;;;;;16.98;12.25;;;11.30;99.90;;;;;;5036578;28;20126;-40
2022/11/12 11:36:34;;;;;;;21.33;12.65;;;11.40;99.90;;;;;;5046939;28;20053;-40
2022/11/12 11:39:03;;;;;;;16.55;12.07;;;11.50;99.90;;;;;;5033327;28;20517;-40
2022/11/12 11:41:47;;;;;;;16.02;12.30;;;11.60;99.90;;;;;;5052694;28;20049;-40
2022/11/12 11:44:22;;;;;;;19.13;12.35;;;11.70;99.90;;;;;;5049501;28;20057;-40
2022/11/12 11:46:57;;;;;;;15.52;11.55;;;11.80;99.90;;;;;;5053563;28;20052;-39
2022/11/12 11:49:54;;;;;;;19.52;12.50;;;11.90;99.90;;;;;;5050637;28;20497;-47
2022/11/12 11:52:41;;;;;;;16.08;11.43;;;12.00;99.90;;;;;;4978983;28;20056;-39
2022/11/12 11:57:13;;;;;;;22.38;13.80;;;12.20;99.90;;;;;;4849436;22;1254633;-41
2022/11/12 11:59:45;;;;;;;16.60;12.50;;;12.30;99.90;;;;;;5022017;28;20045;-39
2022/11/12 12:02:34;;;;;;;19.05;12.32;;;12.30;99.90;;;;;;5033727;28;20045;-39
2022/11/12 12:05:05;;;;;;;20.83;12.85;;;12.40;99.90;;;;;;5032107;28;20057;-41
2022/11/12 12:07:35;;;;;;;17.83;13.30;;;12.40;99.90;;;;;;5045642;28;20080;-41
2022/11/12 12:10:05;;;;;;;17.58;12.65;;;12.40;99.90;;;;;;5030774;28;20061;-39
2022/11/12 12:12:43;;;;;;;19.27;12.57;;;12.50;99.90;;;;;;5012020;28;20161;-41
2022/11/12 12:15:30;;;;;;;21.73;13.57;;;12.50;99.90;;;;;;5026394;28;20338;-40
2022/11/12 12:18:01;;;;;;;19.45;13.25;;;12.60;99.90;;;;;;5043826;28;20461;-41
2022/11/12 12:20:32;;;;;;;16.17;12.48;;;12.60;99.90;;;;;;5048017;28;20408;-41
2022/11/12 12:23:00;;;;;;;15.75;12.55;;;12.60;99.90;;;;;;5031704;28;20080;-41
2022/11/12 12:25:30;;;;;;;17.27;12.98;;;12.60;99.90;;;;;;5049164;28;20061;-40
2022/11/12 12:28:02;;;;;;;20.50;12.95;;;12.60;99.90;;;;;;5039235;28;20110;-41
2022/11/12 12:30:28;;;;;;;16.88;11.18;;;12.70;99.90;;;;;;5028234;28;20302;-41
2022/11/12 12:32:56;;;;;;;17.05;11.57;;;12.70;99.90;;;;;;5031737;28;20047;-41
2022/11/12 12:35:26;;;;;;;18.20;12.10;;;12.70;99.90;;;;;;5026463;28;20464;-42
2022/11/12 12:37:56;;;;;;;13.68;11.40;;;12.70;99.90;;;;;;5029583;28;20128;-42
2022/11/12 12:40:25;;;;;;;18.27;12.35;;;12.70;99.90;;;;;;5045884;28;20673;-42
2022/11/12 12:42:54;;;;;;;16.25;11.60;;;12.80;99.90;;;;;;5048228;28;20091;-42
2022/11/12 12:45:32;;;;;;;16.15;11.77;;;12.80;99.90;;;;;;5043258;28;20568;-40
2022/11/12 12:47:59;;;;;;;15.10;11.18;;;12.90;99.90;;;;;;5041172;28;20144;-41
2022/11/12 12:50:26;;;;;;;15.65;11.20;;;12.90;99.90;;;;;;5020522;28;20132;-43
2022/11/12 12:53:02;;;;;;;14.60;10.93;;;12.90;99.90;;;;;;5042316;28;20056;-42
2022/11/12 12:55:40;;;;;;;18.17;11.65;;;13.00;99.90;;;;;;5044095;28;20108;-40
2022/11/12 12:58:16;;;;;;;17.05;11.38;;;13.00;99.90;;;;;;5037775;28;20143;-40
2022/11/12 13:00:46;;;;;;;13.73;10.63;;;13.10;99.90;;;;;;5041801;28;20041;-41
2022/11/12 13:03:13;;;;;;;14.48;10.80;;;13.10;99.90;;;;;;5026608;28;20491;-42
2022/11/12 13:05:40;;;;;;;13.75;9.95;;;13.10;99.90;;;;;;5037868;28;20517;-39
2022/11/12 13:08:09;;;;;;;15.80;10.95;;;13.10;99.90;;;;;;5012287;28;20405;-39
2022/11/12 13:10:54;;;;;;;17.10;10.63;;;13.20;99.90;;;;;;5028754;28;20124;-42
2022/11/12 13:13:34;;;;;;;13.77;10.70;;;13.20;99.90;;;;;;5023606;28;20104;-39
2022/11/12 13:16:02;;;;;;;14.05;11.18;;;13.20;99.90;;;;;;5026963;28;20519;-39
2022/11/12 13:18:59;;;;;;;16.60;11.10;;;13.20;99.90;;;;;;5005736;28;20057;-42
2022/11/12 13:21:25;;;;;;;18.73;10.65;;;13.30;99.90;;;;;;5007690;28;20054;-42
2022/11/12 13:24:07;;;;;;;12.27;10.40;;;13.30;99.90;;;;;;5015575;28;20140;-41